KFSM/FSM METAR and TAF weather

Enter ICAO airport designator
Station Type Date Time Source
KFSM METAR 2019/02/17 07:53 UTC NOAA

KFSM 170753Z AUTO 05006KT 1 3/4SM BR OVC003 03/02 A2976 RMK AO2 SLP081 T00280017 $


Station Type Date Time Source
KFSM Decoded METAR 2019/02/17 07:53 UTC NOAA

FORT SMITH REGIONAL AIRPORT, AR, United States (KFSM) 35-20N 94-22W 140M
Feb 17, 2019 - 02:53 AM EST / 2019.02.17 0753 UTC
Wind: from the NE (050 degrees) at 7 MPH (6 KT):0
Visibility: 1 3/4 mile(s):0
Sky conditions: overcast
Weather: mist
Temperature: 37.0 F (2.8 C)
Dew Point: 35.1 F (1.7 C)
Relative Humidity: 92%
Pressure (altimeter): 29.76 in. Hg (1007 hPa)
ob: KFSM 170753Z AUTO 05006KT 1 3/4SM BR OVC003 03/02 A2976 RMK AO2 SLP081 T00280017
cycle: 8

Station Type Date Time Source
KFSM TAF 2019/02/17 07:10 UTC NOAA

TAF
AMD KFSM 170708Z 1707/1806 08007KT 3SM BR OVC005
TEMPO 1707/1710 2SM -DZ OVC005
FM171200 04005KT P6SM OVC007
FM171400 30011KT P6SM OVC015
FM171800 30014KT P6SM SCT250


Example: see airport list